sensor_id;sensor_type;location;lat;lon;timestamp;P1;durP1;ratioP1;P2;durP2;ratioP2
67352;SDS011;54238;52.278;21.056;2023-01-24T00:00:11;70.30;;;34.00;;
67352;SDS011;54238;52.278;21.056;2023-01-24T00:03:06;87.70;;;33.60;;
67352;SDS011;54238;52.278;21.056;2023-01-24T00:05:46;93.40;;;35.50;;
67352;SDS011;54238;52.278;21.056;2023-01-24T00:08:19;80.20;;;31.60;;
67352;SDS011;54238;52.278;21.056;2023-01-24T00:11:00;86.90;;;34.10;;
67352;SDS011;54238;52.278;21.056;2023-01-24T00:13:34;72.50;;;30.40;;
67352;SDS011;54238;52.278;21.056;2023-01-24T00:16:21;82.60;;;34.80;;
67352;SDS011;54238;52.278;21.056;2023-01-24T00:18:51;82.20;;;31.10;;
67352;SDS011;54238;52.278;21.056;2023-01-24T00:21:25;73.10;;;28.90;;
67352;SDS011;54238;52.278;21.056;2023-01-24T00:23:56;93.10;;;34.80;;
67352;SDS011;54238;52.278;21.056;2023-01-24T00:26:26;79.00;;;28.60;;
67352;SDS011;54238;52.278;21.056;2023-01-24T00:28:55;80.50;;;35.40;;
67352;SDS011;54238;52.278;21.056;2023-01-24T00:31:27;87.70;;;33.30;;
67352;SDS011;54238;52.278;21.056;2023-01-24T00:33:59;84.00;;;33.40;;
67352;SDS011;54238;52.278;21.056;2023-01-24T00:36:28;93.00;;;34.00;;
67352;SDS011;54238;52.278;21.056;2023-01-24T00:39:00;89.70;;;34.10;;
67352;SDS011;54238;52.278;21.056;2023-01-24T00:41:27;83.80;;;34.50;;
67352;SDS011;54238;52.278;21.056;2023-01-24T00:43:54;75.20;;;32.60;;
67352;SDS011;54238;52.278;21.056;2023-01-24T00:46:22;74.10;;;29.60;;
67352;SDS011;54238;52.278;21.056;2023-01-24T00:48:49;71.00;;;28.90;;
67352;SDS011;54238;52.278;21.056;2023-01-24T00:51:21;88.90;;;35.30;;
67352;SDS011;54238;52.278;21.056;2023-01-24T00:53:50;81.10;;;33.00;;
67352;SDS011;54238;52.278;21.056;2023-01-24T00:56:22;76.60;;;31.40;;
67352;SDS011;54238;52.278;21.056;2023-01-24T00:58:54;68.30;;;29.60;;
67352;SDS011;54238;52.278;21.056;2023-01-24T01:01:21;75.10;;;30.30;;
67352;SDS011;54238;52.278;21.056;2023-01-24T01:03:48;81.00;;;31.20;;
67352;SDS011;54238;52.278;21.056;2023-01-24T01:06:18;78.70;;;31.30;;
67352;SDS011;54238;52.278;21.056;2023-01-24T01:08:50;88.00;;;33.10;;
67352;SDS011;54238;52.278;21.056;2023-01-24T01:11:18;81.30;;;33.30;;
67352;SDS011;54238;52.278;21.056;2023-01-24T01:13:48;70.90;;;32.50;;
67352;SDS011;54238;52.278;21.056;2023-01-24T01:16:19;83.30;;;34.80;;
67352;SDS011;54238;52.278;21.056;2023-01-24T01:18:49;72.10;;;30.80;;
67352;SDS011;54238;52.278;21.056;2023-01-24T01:21:22;73.30;;;31.00;;
67352;SDS011;54238;52.278;21.056;2023-01-24T01:23:50;79.90;;;33.60;;
67352;SDS011;54238;52.278;21.056;2023-01-24T01:26:21;77.60;;;31.50;;
67352;SDS011;54238;52.278;21.056;2023-01-24T01:28:49;67.40;;;28.50;;
67352;SDS011;54238;52.278;21.056;2023-01-24T01:31:16;87.50;;;34.50;;
67352;SDS011;54238;52.278;21.056;2023-01-24T01:33:50;75.20;;;32.10;;
67352;SDS011;54238;52.278;21.056;2023-01-24T01:38:52;84.70;;;31.80;;
67352;SDS011;54238;52.278;21.056;2023-01-24T01:41:20;89.30;;;33.40;;
67352;SDS011;54238;52.278;21.056;2023-01-24T01:43:52;77.80;;;30.30;;
67352;SDS011;54238;52.278;21.056;2023-01-24T01:46:52;81.10;;;32.30;;
67352;SDS011;54238;52.278;21.056;2023-01-24T01:49:24;71.50;;;31.40;;
67352;SDS011;54238;52.278;21.056;2023-01-24T01:52:00;96.30;;;36.00;;
67352;SDS011;54238;52.278;21.056;2023-01-24T01:54:38;68.80;;;30.80;;
67352;SDS011;54238;52.278;21.056;2023-01-24T01:57:27;73.40;;;30.80;;
67352;SDS011;54238;52.278;21.056;2023-01-24T02:00:03;85.80;;;32.40;;
67352;SDS011;54238;52.278;21.056;2023-01-24T02:02:40;72.30;;;31.00;;
67352;SDS011;54238;52.278;21.056;2023-01-24T02:05:44;81.20;;;33.00;;
67352;SDS011;54238;52.278;21.056;2023-01-24T02:08:15;82.10;;;34.00;;
67352;SDS011;54238;52.278;21.056;2023-01-24T02:10:49;73.60;;;31.70;;
67352;SDS011;54238;52.278;21.056;2023-01-24T02:13:37;73.50;;;30.90;;
67352;SDS011;54238;52.278;21.056;2023-01-24T02:16:13;73.70;;;33.50;;
67352;SDS011;54238;52.278;21.056;2023-01-24T02:18:43;75.10;;;31.50;;
67352;SDS011;54238;52.278;21.056;2023-01-24T02:21:18;76.40;;;30.50;;
67352;SDS011;54238;52.278;21.056;2023-01-24T02:26:43;74.70;;;30.20;;
67352;SDS011;54238;52.278;21.056;2023-01-24T02:29:15;72.30;;;31.90;;
67352;SDS011;54238;52.278;21.056;2023-01-24T02:34:26;70.60;;;29.50;;
67352;SDS011;54238;52.278;21.056;2023-01-24T02:37:00;66.10;;;28.30;;
67352;SDS011;54238;52.278;21.056;2023-01-24T02:42:30;65.60;;;26.60;;
67352;SDS011;54238;52.278;21.056;2023-01-24T02:45:23;69.00;;;31.30;;
67352;SDS011;54238;52.278;21.056;2023-01-24T02:47:55;68.90;;;29.00;;
67352;SDS011;54238;52.278;21.056;2023-01-24T02:50:26;77.70;;;33.20;;
67352;SDS011;54238;52.278;21.056;2023-01-24T02:53:16;71.90;;;31.30;;
67352;SDS011;54238;52.278;21.056;2023-01-24T02:56:03;62.30;;;27.80;;
67352;SDS011;54238;52.278;21.056;2023-01-24T02:58:51;73.70;;;30.40;;
67352;SDS011;54238;52.278;21.056;2023-01-24T03:01:22;59.40;;;26.70;;
67352;SDS011;54238;52.278;21.056;2023-01-24T03:03:53;67.20;;;29.60;;
67352;SDS011;54238;52.278;21.056;2023-01-24T03:06:24;65.50;;;29.80;;
67352;SDS011;54238;52.278;21.056;2023-01-24T03:08:51;78.00;;;32.20;;
67352;SDS011;54238;52.278;21.056;2023-01-24T03:11:18;76.10;;;31.80;;
67352;SDS011;54238;52.278;21.056;2023-01-24T03:13:47;66.90;;;31.30;;
67352;SDS011;54238;52.278;21.056;2023-01-24T03:16:33;66.40;;;30.80;;
67352;SDS011;54238;52.278;21.056;2023-01-24T03:19:22;67.50;;;31.00;;
67352;SDS011;54238;52.278;21.056;2023-01-24T03:22:08;54.60;;;27.20;;
67352;SDS011;54238;52.278;21.056;2023-01-24T03:24:55;55.10;;;24.30;;
67352;SDS011;54238;52.278;21.056;2023-01-24T03:27:41;69.40;;;26.90;;
67352;SDS011;54238;52.278;21.056;2023-01-24T03:30:32;69.30;;;28.80;;
67352;SDS011;54238;52.278;21.056;2023-01-24T03:33:18;65.30;;;28.50;;
67352;SDS011;54238;52.278;21.056;2023-01-24T03:36:04;61.40;;;26.20;;
67352;SDS011;54238;52.278;21.056;2023-01-24T03:38:33;63.90;;;29.60;;
67352;SDS011;54238;52.278;21.056;2023-01-24T03:41:19;64.30;;;28.10;;
67352;SDS011;54238;52.278;21.056;2023-01-24T03:43:55;59.30;;;25.40;;
67352;SDS011;54238;52.278;21.056;2023-01-24T03:46:22;72.40;;;30.60;;
67352;SDS011;54238;52.278;21.056;2023-01-24T03:48:59;72.90;;;30.90;;
67352;SDS011;54238;52.278;21.056;2023-01-24T03:51:31;75.60;;;30.70;;
67352;SDS011;54238;52.278;21.056;2023-01-24T03:54:20;54.30;;;24.60;;
67352;SDS011;54238;52.278;21.056;2023-01-24T03:56:51;60.10;;;27.90;;
67352;SDS011;54238;52.278;21.056;2023-01-24T03:59:21;69.00;;;30.00;;
67352;SDS011;54238;52.278;21.056;2023-01-24T04:01:53;58.70;;;25.80;;
67352;SDS011;54238;52.278;21.056;2023-01-24T04:04:28;64.70;;;30.80;;
67352;SDS011;54238;52.278;21.056;2023-01-24T04:07:15;62.90;;;27.70;;
67352;SDS011;54238;52.278;21.056;2023-01-24T04:09:44;63.60;;;30.50;;
67352;SDS011;54238;52.278;21.056;2023-01-24T04:12:12;61.40;;;28.40;;
67352;SDS011;54238;52.278;21.056;2023-01-24T04:14:41;61.10;;;28.10;;
67352;SDS011;54238;52.278;21.056;2023-01-24T04:17:13;63.00;;;28.50;;
67352;SDS011;54238;52.278;21.056;2023-01-24T04:19:41;67.70;;;28.40;;
67352;SDS011;54238;52.278;21.056;2023-01-24T04:22:11;65.50;;;29.20;;
67352;SDS011;54238;52.278;21.056;2023-01-24T04:24:38;63.10;;;28.40;;
67352;SDS011;54238;52.278;21.056;2023-01-24T04:27:08;65.30;;;27.80;;
67352;SDS011;54238;52.278;21.056;2023-01-24T04:29:37;54.20;;;26.90;;
67352;SDS011;54238;52.278;21.056;2023-01-24T04:32:07;68.60;;;30.10;;
67352;SDS011;54238;52.278;21.056;2023-01-24T04:34:34;62.20;;;28.80;;
67352;SDS011;54238;52.278;21.056;2023-01-24T04:37:02;55.70;;;27.20;;
67352;SDS011;54238;52.278;21.056;2023-01-24T04:39:29;61.90;;;29.50;;
67352;SDS011;54238;52.278;21.056;2023-01-24T04:41:58;64.50;;;28.70;;
67352;SDS011;54238;52.278;21.056;2023-01-24T04:44:28;58.60;;;27.70;;
67352;SDS011;54238;52.278;21.056;2023-01-24T04:47:00;62.70;;;26.90;;
67352;SDS011;54238;52.278;21.056;2023-01-24T04:49:27;55.70;;;25.00;;
67352;SDS011;54238;52.278;21.056;2023-01-24T04:51:59;61.70;;;29.30;;
67352;SDS011;54238;52.278;21.056;2023-01-24T04:54:28;61.10;;;27.40;;
67352;SDS011;54238;52.278;21.056;2023-01-24T04:56:58;62.60;;;28.60;;
67352;SDS011;54238;52.278;21.056;2023-01-24T04:59:25;54.80;;;27.30;;
67352;SDS011;54238;52.278;21.056;2023-01-24T05:01:54;57.10;;;27.60;;
67352;SDS011;54238;52.278;21.056;2023-01-24T05:04:24;53.00;;;26.40;;
67352;SDS011;54238;52.278;21.056;2023-01-24T05:06:51;55.80;;;27.10;;
67352;SDS011;54238;52.278;21.056;2023-01-24T05:09:20;64.10;;;26.60;;
67352;SDS011;54238;52.278;21.056;2023-01-24T05:11:48;64.90;;;28.70;;
67352;SDS011;54238;52.278;21.056;2023-01-24T05:14:15;68.00;;;29.50;;
67352;SDS011;54238;52.278;21.056;2023-01-24T05:16:45;60.70;;;26.60;;
67352;SDS011;54238;52.278;21.056;2023-01-24T05:19:15;59.10;;;27.50;;
67352;SDS011;54238;52.278;21.056;2023-01-24T05:21:42;59.20;;;27.40;;
67352;SDS011;54238;52.278;21.056;2023-01-24T05:24:11;61.20;;;28.20;;
67352;SDS011;54238;52.278;21.056;2023-01-24T05:26:41;62.20;;;27.30;;
67352;SDS011;54238;52.278;21.056;2023-01-24T05:29:08;62.20;;;29.00;;
67352;SDS011;54238;52.278;21.056;2023-01-24T05:31:42;63.60;;;25.80;;
67352;SDS011;54238;52.278;21.056;2023-01-24T05:34:11;57.60;;;27.70;;
67352;SDS011;54238;52.278;21.056;2023-01-24T05:36:41;56.10;;;25.90;;
67352;SDS011;54238;52.278;21.056;2023-01-24T05:39:11;58.90;;;29.00;;
67352;SDS011;54238;52.278;21.056;2023-01-24T05:41:43;63.60;;;29.20;;
67352;SDS011;54238;52.278;21.056;2023-01-24T05:44:12;63.50;;;27.90;;
67352;SDS011;54238;52.278;21.056;2023-01-24T05:46:41;62.00;;;28.80;;
67352;SDS011;54238;52.278;21.056;2023-01-24T05:49:11;59.00;;;29.20;;
67352;SDS011;54238;52.278;21.056;2023-01-24T05:51:40;61.20;;;27.40;;
67352;SDS011;54238;52.278;21.056;2023-01-24T05:54:07;70.50;;;30.70;;
67352;SDS011;54238;52.278;21.056;2023-01-24T05:56:36;57.60;;;25.50;;
67352;SDS011;54238;52.278;21.056;2023-01-24T05:59:06;54.00;;;27.10;;
67352;SDS011;54238;52.278;21.056;2023-01-24T06:01:37;61.70;;;28.30;;
67352;SDS011;54238;52.278;21.056;2023-01-24T06:04:08;41.70;;;19.80;;
67352;SDS011;54238;52.278;21.056;2023-01-24T06:06:35;57.40;;;29.40;;
67352;SDS011;54238;52.278;21.056;2023-01-24T06:09:05;56.10;;;24.90;;
67352;SDS011;54238;52.278;21.056;2023-01-24T06:11:32;54.30;;;25.60;;
67352;SDS011;54238;52.278;21.056;2023-01-24T06:14:02;62.10;;;29.00;;
67352;SDS011;54238;52.278;21.056;2023-01-24T06:16:29;65.50;;;30.50;;
67352;SDS011;54238;52.278;21.056;2023-01-24T06:19:01;59.20;;;28.00;;
67352;SDS011;54238;52.278;21.056;2023-01-24T06:24:20;57.30;;;27.90;;
67352;SDS011;54238;52.278;21.056;2023-01-24T06:26:49;58.60;;;28.10;;
67352;SDS011;54238;52.278;21.056;2023-01-24T06:29:23;57.30;;;25.70;;
67352;SDS011;54238;52.278;21.056;2023-01-24T06:34:47;54.40;;;26.00;;
67352;SDS011;54238;52.278;21.056;2023-01-24T06:37:46;47.00;;;21.50;;
67352;SDS011;54238;52.278;21.056;2023-01-24T06:40:20;51.40;;;25.60;;
67352;SDS011;54238;52.278;21.056;2023-01-24T06:42:54;55.90;;;27.60;;
67352;SDS011;54238;52.278;21.056;2023-01-24T06:45:31;54.30;;;25.40;;
67352;SDS011;54238;52.278;21.056;2023-01-24T06:47:59;55.50;;;28.10;;
67352;SDS011;54238;52.278;21.056;2023-01-24T06:50:28;50.30;;;25.00;;
67352;SDS011;54238;52.278;21.056;2023-01-24T06:53:00;52.20;;;25.80;;
67352;SDS011;54238;52.278;21.056;2023-01-24T06:55:31;53.90;;;24.10;;
67352;SDS011;54238;52.278;21.056;2023-01-24T06:58:05;64.60;;;29.70;;
67352;SDS011;54238;52.278;21.056;2023-01-24T07:00:32;55.70;;;26.50;;
67352;SDS011;54238;52.278;21.056;2023-01-24T07:03:03;60.30;;;27.30;;
67352;SDS011;54238;52.278;21.056;2023-01-24T07:05:35;57.40;;;26.80;;
67352;SDS011;54238;52.278;21.056;2023-01-24T07:08:06;63.00;;;28.00;;
67352;SDS011;54238;52.278;21.056;2023-01-24T07:10:38;46.90;;;24.40;;
67352;SDS011;54238;52.278;21.056;2023-01-24T07:13:08;49.90;;;26.70;;
67352;SDS011;54238;52.278;21.056;2023-01-24T07:15:39;56.70;;;27.10;;
67352;SDS011;54238;52.278;21.056;2023-01-24T07:18:11;59.90;;;29.00;;
67352;SDS011;54238;52.278;21.056;2023-01-24T07:20:38;54.30;;;27.20;;
67352;SDS011;54238;52.278;21.056;2023-01-24T07:23:16;57.00;;;27.00;;
67352;SDS011;54238;52.278;21.056;2023-01-24T07:25:50;48.90;;;24.80;;
67352;SDS011;54238;52.278;21.056;2023-01-24T07:28:21;54.30;;;26.50;;
67352;SDS011;54238;52.278;21.056;2023-01-24T07:30:48;55.00;;;26.80;;
67352;SDS011;54238;52.278;21.056;2023-01-24T07:33:18;47.40;;;24.50;;
67352;SDS011;54238;52.278;21.056;2023-01-24T07:35:47;51.20;;;27.30;;
67352;SDS011;54238;52.278;21.056;2023-01-24T07:38:14;60.40;;;28.30;;
67352;SDS011;54238;52.278;21.056;2023-01-24T07:40:53;51.60;;;25.80;;
67352;SDS011;54238;52.278;21.056;2023-01-24T07:43:23;49.30;;;25.10;;
67352;SDS011;54238;52.278;21.056;2023-01-24T07:45:52;61.20;;;28.70;;
67352;SDS011;54238;52.278;21.056;2023-01-24T07:48:22;59.60;;;28.20;;
67352;SDS011;54238;52.278;21.056;2023-01-24T07:50:57;56.90;;;27.50;;
67352;SDS011;54238;52.278;21.056;2023-01-24T07:53:28;55.60;;;24.50;;
67352;SDS011;54238;52.278;21.056;2023-01-24T07:56:02;61.70;;;28.60;;
67352;SDS011;54238;52.278;21.056;2023-01-24T07:58:32;61.80;;;29.60;;
67352;SDS011;54238;52.278;21.056;2023-01-24T08:01:02;55.20;;;26.20;;
67352;SDS011;54238;52.278;21.056;2023-01-24T08:03:38;65.70;;;30.20;;
67352;SDS011;54238;52.278;21.056;2023-01-24T08:06:08;67.00;;;30.70;;
67352;SDS011;54238;52.278;21.056;2023-01-24T08:08:37;48.20;;;26.20;;
67352;SDS011;54238;52.278;21.056;2023-01-24T08:11:04;61.70;;;28.50;;
67352;SDS011;54238;52.278;21.056;2023-01-24T08:13:38;49.30;;;24.80;;
67352;SDS011;54238;52.278;21.056;2023-01-24T08:16:05;53.80;;;24.30;;
67352;SDS011;54238;52.278;21.056;2023-01-24T08:18:36;53.00;;;26.20;;
67352;SDS011;54238;52.278;21.056;2023-01-24T08:21:07;60.30;;;30.40;;
67352;SDS011;54238;52.278;21.056;2023-01-24T08:23:39;62.70;;;29.10;;
67352;SDS011;54238;52.278;21.056;2023-01-24T08:26:08;54.80;;;27.10;;
67352;SDS011;54238;52.278;21.056;2023-01-24T08:28:35;51.20;;;25.40;;
67352;SDS011;54238;52.278;21.056;2023-01-24T08:31:07;62.00;;;29.80;;
67352;SDS011;54238;52.278;21.056;2023-01-24T08:33:34;53.90;;;27.00;;
67352;SDS011;54238;52.278;21.056;2023-01-24T08:36:07;55.50;;;27.60;;
67352;SDS011;54238;52.278;21.056;2023-01-24T08:38:34;51.90;;;27.10;;
67352;SDS011;54238;52.278;21.056;2023-01-24T08:41:04;64.80;;;31.00;;
67352;SDS011;54238;52.278;21.056;2023-01-24T08:43:37;59.60;;;30.50;;
67352;SDS011;54238;52.278;21.056;2023-01-24T08:46:06;54.10;;;26.70;;
67352;SDS011;54238;52.278;21.056;2023-01-24T08:48:53;55.70;;;26.90;;
67352;SDS011;54238;52.278;21.056;2023-01-24T08:51:24;60.80;;;28.60;;
67352;SDS011;54238;52.278;21.056;2023-01-24T08:53:53;56.00;;;28.50;;
67352;SDS011;54238;52.278;21.056;2023-01-24T08:56:25;62.50;;;31.30;;
67352;SDS011;54238;52.278;21.056;2023-01-24T08:58:52;65.10;;;31.30;;
67352;SDS011;54238;52.278;21.056;2023-01-24T09:01:19;62.10;;;31.10;;
67352;SDS011;54238;52.278;21.056;2023-01-24T09:03:47;66.40;;;29.80;;
67352;SDS011;54238;52.278;21.056;2023-01-24T09:06:18;45.70;;;22.20;;
67352;SDS011;54238;52.278;21.056;2023-01-24T09:08:46;57.50;;;27.90;;
67352;SDS011;54238;52.278;21.056;2023-01-24T09:11:15;44.00;;;21.90;;
67352;SDS011;54238;52.278;21.056;2023-01-24T09:13:47;57.90;;;28.00;;
67352;SDS011;54238;52.278;21.056;2023-01-24T09:16:20;58.00;;;28.10;;
67352;SDS011;54238;52.278;21.056;2023-01-24T09:18:47;53.40;;;26.20;;
67352;SDS011;54238;52.278;21.056;2023-01-24T09:21:20;50.90;;;26.50;;
67352;SDS011;54238;52.278;21.056;2023-01-24T09:23:55;49.90;;;23.90;;
67352;SDS011;54238;52.278;21.056;2023-01-24T09:26:27;50.40;;;27.40;;
67352;SDS011;54238;52.278;21.056;2023-01-24T09:28:57;56.60;;;29.00;;
67352;SDS011;54238;52.278;21.056;2023-01-24T09:31:29;54.30;;;27.40;;
67352;SDS011;54238;52.278;21.056;2023-01-24T09:34:00;51.20;;;28.10;;
67352;SDS011;54238;52.278;21.056;2023-01-24T09:36:36;46.20;;;26.20;;
67352;SDS011;54238;52.278;21.056;2023-01-24T09:39:08;52.30;;;28.60;;
67352;SDS011;54238;52.278;21.056;2023-01-24T09:42:03;55.60;;;28.40;;
67352;SDS011;54238;52.278;21.056;2023-01-24T09:50:25;50.10;;;27.00;;
67352;SDS011;54238;52.278;21.056;2023-01-24T09:52:57;52.00;;;26.90;;
67352;SDS011;54238;52.278;21.056;2023-01-24T09:55:28;53.00;;;28.10;;
67352;SDS011;54238;52.278;21.056;2023-01-24T10:01:13;57.00;;;28.60;;
67352;SDS011;54238;52.278;21.056;2023-01-24T10:03:46;56.80;;;29.80;;
67352;SDS011;54238;52.278;21.056;2023-01-24T10:06:20;54.90;;;28.60;;
67352;SDS011;54238;52.278;21.056;2023-01-24T10:09:06;57.80;;;29.70;;
67352;SDS011;54238;52.278;21.056;2023-01-24T10:11:46;54.00;;;27.20;;
67352;SDS011;54238;52.278;21.056;2023-01-24T10:20:49;44.90;;;23.40;;
67352;SDS011;54238;52.278;21.056;2023-01-24T10:23:31;42.30;;;21.90;;
67352;SDS011;54238;52.278;21.056;2023-01-24T10:26:18;40.30;;;22.50;;
67352;SDS011;54238;52.278;21.056;2023-01-24T10:28:54;61.30;;;26.70;;
67352;SDS011;54238;52.278;21.056;2023-01-24T10:31:31;50.90;;;25.70;;
67352;SDS011;54238;52.278;21.056;2023-01-24T10:34:16;58.00;;;28.00;;
67352;SDS011;54238;52.278;21.056;2023-01-24T10:39:27;42.60;;;23.90;;
67352;SDS011;54238;52.278;21.056;2023-01-24T10:41:55;44.30;;;22.80;;
67352;SDS011;54238;52.278;21.056;2023-01-24T10:44:24;42.80;;;22.40;;
67352;SDS011;54238;52.278;21.056;2023-01-24T10:49:30;50.60;;;24.40;;
67352;SDS011;54238;52.278;21.056;2023-01-24T10:52:18;51.80;;;25.00;;
67352;SDS011;54238;52.278;21.056;2023-01-24T10:54:59;51.40;;;25.90;;
67352;SDS011;54238;52.278;21.056;2023-01-24T10:57:37;45.20;;;22.90;;
67352;SDS011;54238;52.278;21.056;2023-01-24T11:03:02;48.00;;;24.40;;
67352;SDS011;54238;52.278;21.056;2023-01-24T11:05:49;50.30;;;25.90;;
67352;SDS011;54238;52.278;21.056;2023-01-24T11:08:24;57.20;;;25.20;;
67352;SDS011;54238;52.278;21.056;2023-01-24T11:11:20;51.30;;;24.60;;
67352;SDS011;54238;52.278;21.056;2023-01-24T11:13:58;40.40;;;19.70;;
67352;SDS011;54238;52.278;21.056;2023-01-24T11:16:33;43.00;;;23.20;;
67352;SDS011;54238;52.278;21.056;2023-01-24T11:21:59;54.90;;;25.60;;
67352;SDS011;54238;52.278;21.056;2023-01-24T11:25:03;46.80;;;23.60;;
67352;SDS011;54238;52.278;21.056;2023-01-24T11:27:51;58.90;;;27.50;;
67352;SDS011;54238;52.278;21.056;2023-01-24T11:30:23;70.50;;;27.00;;
67352;SDS011;54238;52.278;21.056;2023-01-24T11:36:04;47.70;;;23.80;;
67352;SDS011;54238;52.278;21.056;2023-01-24T11:38:43;45.60;;;23.80;;
67352;SDS011;54238;52.278;21.056;2023-01-24T11:41:28;45.20;;;22.80;;
67352;SDS011;54238;52.278;21.056;2023-01-24T11:47:16;55.00;;;24.80;;
67352;SDS011;54238;52.278;21.056;2023-01-24T11:55:41;43.10;;;22.80;;
67352;SDS011;54238;52.278;21.056;2023-01-24T12:13:47;59.50;;;25.80;;
67352;SDS011;54238;52.278;21.056;2023-01-24T12:22:25;52.40;;;25.70;;
67352;SDS011;54238;52.278;21.056;2023-01-24T12:25:00;48.50;;;23.30;;
67352;SDS011;54238;52.278;21.056;2023-01-24T12:27:46;46.80;;;22.00;;
67352;SDS011;54238;52.278;21.056;2023-01-24T12:30:33;50.80;;;25.10;;
67352;SDS011;54238;52.278;21.056;2023-01-24T12:39:31;51.60;;;23.20;;
67352;SDS011;54238;52.278;21.056;2023-01-24T12:42:16;54.30;;;25.50;;
67352;SDS011;54238;52.278;21.056;2023-01-24T12:45:14;54.80;;;25.20;;
67352;SDS011;54238;52.278;21.056;2023-01-24T12:47:57;51.80;;;23.90;;
67352;SDS011;54238;52.278;21.056;2023-01-24T12:50:52;55.30;;;24.00;;
67352;SDS011;54238;52.278;21.056;2023-01-24T12:53:37;51.60;;;25.60;;
67352;SDS011;54238;52.278;21.056;2023-01-24T12:58:54;49.00;;;22.80;;
67352;SDS011;54238;52.278;21.056;2023-01-24T13:04:48;47.20;;;23.80;;
67352;SDS011;54238;52.278;21.056;2023-01-24T13:08:08;49.40;;;21.60;;
67352;SDS011;54238;52.278;21.056;2023-01-24T13:14:03;39.00;;;20.30;;
67352;SDS011;54238;52.278;21.056;2023-01-24T13:25:41;52.00;;;25.80;;
67352;SDS011;54238;52.278;21.056;2023-01-24T13:34:54;51.30;;;24.10;;
67352;SDS011;54238;52.278;21.056;2023-01-24T13:37:31;47.90;;;23.20;;
67352;SDS011;54238;52.278;21.056;2023-01-24T13:42:47;44.30;;;22.50;;
67352;SDS011;54238;52.278;21.056;2023-01-24T13:47:53;49.10;;;23.50;;
67352;SDS011;54238;52.278;21.056;2023-01-24T13:50:41;48.20;;;22.50;;
67352;SDS011;54238;52.278;21.056;2023-01-24T13:53:11;51.60;;;24.30;;
67352;SDS011;54238;52.278;21.056;2023-01-24T13:58:25;49.00;;;25.20;;
67352;SDS011;54238;52.278;21.056;2023-01-24T14:00:57;47.80;;;23.00;;
67352;SDS011;54238;52.278;21.056;2023-01-24T14:06:09;45.40;;;23.50;;
67352;SDS011;54238;52.278;21.056;2023-01-24T14:08:43;42.60;;;21.20;;
67352;SDS011;54238;52.278;21.056;2023-01-24T14:12:14;42.60;;;23.10;;
67352;SDS011;54238;52.278;21.056;2023-01-24T14:15:00;48.50;;;23.40;;
67352;SDS011;54238;52.278;21.056;2023-01-24T14:23:27;52.00;;;24.90;;
67352;SDS011;54238;52.278;21.056;2023-01-24T14:26:01;52.70;;;24.50;;
67352;SDS011;54238;52.278;21.056;2023-01-24T14:28:44;52.50;;;26.20;;
67352;SDS011;54238;52.278;21.056;2023-01-24T14:31:32;43.40;;;21.80;;
67352;SDS011;54238;52.278;21.056;2023-01-24T14:34:44;42.40;;;22.20;;
67352;SDS011;54238;52.278;21.056;2023-01-24T14:37:42;56.10;;;25.60;;
67352;SDS011;54238;52.278;21.056;2023-01-24T14:41:02;46.60;;;24.30;;
67352;SDS011;54238;52.278;21.056;2023-01-24T14:43:56;50.60;;;23.10;;
67352;SDS011;54238;52.278;21.056;2023-01-24T14:46:23;46.20;;;23.90;;
67352;SDS011;54238;52.278;21.056;2023-01-24T14:48:53;44.80;;;22.90;;
67352;SDS011;54238;52.278;21.056;2023-01-24T14:51:23;50.20;;;23.80;;
67352;SDS011;54238;52.278;21.056;2023-01-24T14:53:52;55.50;;;24.70;;
67352;SDS011;54238;52.278;21.056;2023-01-24T14:56:20;41.70;;;21.80;;
67352;SDS011;54238;52.278;21.056;2023-01-24T14:58:51;47.90;;;22.90;;
67352;SDS011;54238;52.278;21.056;2023-01-24T15:01:41;46.50;;;22.20;;
67352;SDS011;54238;52.278;21.056;2023-01-24T15:04:25;43.50;;;24.10;;
67352;SDS011;54238;52.278;21.056;2023-01-24T15:07:10;46.20;;;23.80;;
67352;SDS011;54238;52.278;21.056;2023-01-24T15:09:43;45.70;;;24.00;;
67352;SDS011;54238;52.278;21.056;2023-01-24T15:12:32;55.90;;;24.20;;
67352;SDS011;54238;52.278;21.056;2023-01-24T15:15:05;45.00;;;22.90;;
67352;SDS011;54238;52.278;21.056;2023-01-24T15:17:33;41.50;;;20.50;;
67352;SDS011;54238;52.278;21.056;2023-01-24T15:20:13;43.30;;;23.00;;
67352;SDS011;54238;52.278;21.056;2023-01-24T15:22:51;32.20;;;17.30;;
67352;SDS011;54238;52.278;21.056;2023-01-24T15:25:26;42.70;;;21.40;;
67352;SDS011;54238;52.278;21.056;2023-01-24T15:27:55;40.90;;;20.30;;
67352;SDS011;54238;52.278;21.056;2023-01-24T15:30:31;35.30;;;17.80;;
67352;SDS011;54238;52.278;21.056;2023-01-24T15:33:11;36.50;;;17.90;;
67352;SDS011;54238;52.278;21.056;2023-01-24T15:35:45;30.70;;;17.60;;
67352;SDS011;54238;52.278;21.056;2023-01-24T15:38:16;49.60;;;22.70;;
67352;SDS011;54238;52.278;21.056;2023-01-24T15:40:58;42.00;;;21.20;;
67352;SDS011;54238;52.278;21.056;2023-01-24T15:43:39;35.10;;;18.60;;
67352;SDS011;54238;52.278;21.056;2023-01-24T15:54:37;34.80;;;17.90;;
67352;SDS011;54238;52.278;21.056;2023-01-24T15:57:14;42.40;;;23.00;;
67352;SDS011;54238;52.278;21.056;2023-01-24T15:59:57;40.30;;;21.40;;
67352;SDS011;54238;52.278;21.056;2023-01-24T16:02:28;37.50;;;20.80;;
67352;SDS011;54238;52.278;21.056;2023-01-24T16:04:57;38.60;;;20.20;;
67352;SDS011;54238;52.278;21.056;2023-01-24T16:07:27;38.10;;;20.90;;
67352;SDS011;54238;52.278;21.056;2023-01-24T16:10:29;46.70;;;24.30;;
67352;SDS011;54238;52.278;21.056;2023-01-24T16:12:58;34.80;;;19.10;;
67352;SDS011;54238;52.278;21.056;2023-01-24T16:15:28;45.90;;;22.10;;
67352;SDS011;54238;52.278;21.056;2023-01-24T16:18:05;42.30;;;23.50;;
67352;SDS011;54238;52.278;21.056;2023-01-24T16:20:34;40.30;;;21.90;;
67352;SDS011;54238;52.278;21.056;2023-01-24T16:23:03;43.90;;;23.40;;
67352;SDS011;54238;52.278;21.056;2023-01-24T16:25:34;42.90;;;22.80;;
67352;SDS011;54238;52.278;21.056;2023-01-24T16:28:03;41.90;;;22.60;;
67352;SDS011;54238;52.278;21.056;2023-01-24T16:30:31;46.00;;;24.40;;
67352;SDS011;54238;52.278;21.056;2023-01-24T16:32:58;67.50;;;35.40;;
67352;SDS011;54238;52.278;21.056;2023-01-24T16:35:32;66.10;;;33.20;;
67352;SDS011;54238;52.278;21.056;2023-01-24T16:38:03;58.60;;;30.30;;
67352;SDS011;54238;52.278;21.056;2023-01-24T16:40:32;51.60;;;26.30;;
67352;SDS011;54238;52.278;21.056;2023-01-24T16:43:03;50.20;;;27.30;;
67352;SDS011;54238;52.278;21.056;2023-01-24T16:45:36;51.10;;;27.30;;
67352;SDS011;54238;52.278;21.056;2023-01-24T16:48:03;50.00;;;26.70;;
67352;SDS011;54238;52.278;21.056;2023-01-24T16:50:33;46.80;;;26.40;;
67352;SDS011;54238;52.278;21.056;2023-01-24T16:53:02;53.00;;;27.50;;
67352;SDS011;54238;52.278;21.056;2023-01-24T16:55:32;47.70;;;27.00;;
67352;SDS011;54238;52.278;21.056;2023-01-24T16:58:09;47.60;;;26.70;;
67352;SDS011;54238;52.278;21.056;2023-01-24T17:00:39;48.20;;;25.30;;
67352;SDS011;54238;52.278;21.056;2023-01-24T17:03:09;46.90;;;25.80;;